Ocean Celebrity — HOSZ — position and weather

sailwx.info

Track history (hours):
 
Tides and Currents Weather Stations Pressure Air Temp Water Temp Dewpoint Dewpoint Depression Visibility Wind Speed Wind Dir Waves Ship Positions

Ocean Celebrity

Last reported at 2015-Jan-02 19:31 UTC. Time now 2015-Jan-25 18:24 UTC.
Position N 31°03' E 122°46'.
Warning: this ship's position is 22 days out of date.

Length 289 m; draft 7.3 m.

Type: Cargo ship. MMSI: 356712000.

Date/timePositionNaut miles runAvg speedWind from/ knotsBaromVisibWave heightAir tempDewpointWater temp
2015-Jan-02 19:31N 31°03' E 122°46'1010.4
2015-Jan-02 18:32N 31°03' E 122°34'1010.2
2015-Jan-02 17:33N 31°06' E 122°23'1414.2
2015-Jan-02 16:33N 31°12' E 122°08'1212.1
2015-Jan-02 15:33N 31°16' E 121°54'1110.8
2015-Jan-02 14:33N 31°19' E 121°43'9 9.3
2015-Jan-02 13:33N 31°24' E 121°33'8 8.0
2015-Jan-02 12:33N 31°29' E 121°26'1111.2
2015-Jan-02 11:33N 31°37' E 121°16'1212.0
2015-Jan-02 10:33N 31°44' E 121°06'1212.0
2015-Jan-02 09:33N 31°51' E 120°54'8 8.3
2015-Jan-02 08:33N 31°59' E 120°51'0 0.0
2015-Jan-02 07:14N 31°59' E 120°51'0 0.0
2015-Jan-02 06:29N 31°59' E 120°51'0 0.0
2015-Jan-02 05:29N 31°59' E 120°51'0 0.0
2015-Jan-02 04:29N 31°59' E 120°51'0 0.0
2015-Jan-02 03:17N 31°59' E 120°51'0 0.0
2015-Jan-02 02:32N 31°59' E 120°51'0 0.0
2015-Jan-02 01:32N 31°59' E 120°51'0 0.0
2015-Jan-02 00:29N 31°59' E 120°51'0 0.0
2015-Jan-01 23:29N 31°59' E 120°51'0 0.0
2015-Jan-01 22:32N 31°59' E 120°51'0 0.0
2015-Jan-01 21:29N 31°59' E 120°51'0 0.0
2015-Jan-01 20:29N 31°59' E 120°51'0 0.0
2015-Jan-01 19:29N 31°59' E 120°51'0 0.0
2015-Jan-01 18:32N 31°59' E 120°51'0 0.0
2015-Jan-01 17:32N 31°59' E 120°51'0 0.0
2015-Jan-01 16:32N 31°59' E 120°51'0 0.0
2015-Jan-01 15:29N 31°59' E 120°51'0 0.0
2015-Jan-01 14:29N 31°59' E 120°51'0 0.0
2015-Jan-01 13:32N 31°59' E 120°51'0 0.0
2015-Jan-01 12:26N 31°59' E 120°51'0 0.0
2015-Jan-01 11:32N 31°59' E 120°51'0 0.0
2015-Jan-01 10:11N 31°59' E 120°51'0 0.0
2015-Jan-01 09:32N 31°59' E 120°51'0 0.0
2015-Jan-01 08:17N 31°59' E 120°51'0 0.0
2015-Jan-01 07:32N 31°59' E 120°51'0 0.0
2015-Jan-01 06:28N 31°59' E 120°51'0 0.0
2015-Jan-01 05:33N 31°59' E 120°51'0 0.0
2015-Jan-01 04:33N 31°59' E 120°51'0 0.0
2015-Jan-01 03:33N 31°59' E 120°51'0 0.0
2015-Jan-01 02:33N 31°59' E 120°51'0 0.0
2015-Jan-01 01:33N 31°59' E 120°51'0 0.0
2015-Jan-01 00:30N 31°59' E 120°51'0 0.0
2014-Dec-31 23:33N 31°59' E 120°51'0 0.0
2014-Dec-31 22:33N 31°59' E 120°51'0 0.0
2014-Dec-31 21:33N 31°59' E 120°51'0 0.0
2014-Dec-31 20:27N 31°59' E 120°51'0 0.0
2014-Dec-31 19:30N 31°59' E 120°51'0 0.0
2014-Dec-31 18:33N 31°59' E 120°51'0 0.0
2014-Dec-31 17:33N 31°59' E 120°51'0 0.0
2014-Dec-31 16:33N 31°59' E 120°51'0 0.0
2014-Dec-31 15:33N 31°59' E 120°51'0 0.0
2014-Dec-31 14:33N 31°59' E 120°51'0 0.0
2014-Dec-31 13:33N 31°59' E 120°51'0 0.0
2014-Dec-31 12:33N 31°59' E 120°51'0 0.0
2014-Dec-31 11:30N 31°59' E 120°51'0 0.0
2014-Dec-31 10:33N 31°59' E 120°51'0 0.0
2014-Dec-31 09:33N 31°59' E 120°51'0 0.0
2014-Dec-31 08:30N 31°59' E 120°51'0 0.0
2014-Dec-31 07:33N 31°59' E 120°51'0 0.0
2014-Dec-31 06:24N 31°59' E 120°51'0 0.0
2014-Dec-31 05:21N 31°59' E 120°51'0 0.0
2014-Dec-31 04:30N 31°59' E 120°51'0 0.0
2014-Dec-31 03:28N 31°59' E 120°51'4 4.9
2014-Dec-31 02:33N 31°55' E 120°53'1010.1
2014-Dec-31 01:33N 31°47' E 120°60'1111.0
2014-Dec-31 00:34N 31°41' E 121°11'9 4.5
2014-Dec-30 22:31N 31°35' E 121°19'0 0.2
2014-Dec-30 21:31N 31°35' E 121°19'0 0.0
2014-Dec-30 20:31N 31°35' E 121°19'0 0.1
2014-Dec-30 19:31N 31°35' E 121°19'0 0.0
2014-Dec-30 18:31N 31°35' E 121°19'0 0.0
2014-Dec-30 17:31N 31°35' E 121°19'0 0.0
2014-Dec-30 16:31N 31°35' E 121°19'0 0.1
2014-Dec-30 15:31N 31°35' E 121°19'0 0.2
2014-Dec-30 14:28N 31°35' E 121°19'0 0.2
2014-Dec-30 13:31N 31°35' E 121°19'0 0.2
2014-Dec-30 12:33N 31°35' E 121°19'3 3.4
2014-Dec-30 11:33N 31°32' E 121°21'10 9.9
2014-Dec-30 10:33N 31°26' E 121°30'9 9.3
2014-Dec-30 09:33N 31°21' E 121°39'1110.8
2014-Dec-30 08:33N 31°16' E 121°51'10 9.8
2014-Dec-30 07:33N 31°14' E 122°02'9 9.3
2014-Dec-30 06:33N 31°10' E 122°12'10 9.7
2014-Dec-30 05:33N 31°06' E 122°22'8 8.4
2014-Dec-30 04:33N 31°07' E 122°32'5 5.2
2014-Dec-30 03:33N 31°07' E 122°38'5 5.3
2014-Dec-30 02:33N 31°07' E 122°44'5 4.9
2014-Dec-30 01:29N 31°08' E 122°50'0 0.1
2014-Dec-29 22:23N 31°08' E 122°50'0 0.1
2014-Dec-29 21:08N 31°08' E 122°50'0 0.1
2014-Dec-29 20:20N 31°08' E 122°50'0 0.0
2014-Dec-29 19:14N 31°08' E 122°50'0 0.0
2014-Dec-29 03:11N 31°08' E 122°50'0 0.0
2014-Dec-29 02:32N 31°08' E 122°50'  
2014-Dec-25 08:31N 29°47' E 122°38'9 9.4
2014-Dec-25 07:33N 29°42' E 122°29'1211.7
2014-Dec-25 06:33N 29°47' E 122°16'1111.1
2014-Dec-25 05:33N 29°55' E 122°08'9 8.6
2014-Dec-25 04:33N 29°58' E 121°58'4 3.2
2014-Dec-25 03:21N 30°02' E 121°59'0 0.0
2014-Dec-25 02:21N 30°02' E 121°59'0 0.0
2014-Dec-25 01:33N 30°02' E 121°59'0 0.0
2014-Dec-25 00:21N 30°02' E 121°59'0 0.0
2014-Dec-24 23:09N 30°02' E 121°59'0 0.0
2014-Dec-24 22:21N 30°02' E 121°59'0 0.0
2014-Dec-24 21:21N 30°02' E 121°59'0 0.0
2014-Dec-24 20:03N 30°02' E 121°59'0 0.0
2014-Dec-24 19:09N 30°02' E 121°59'0 0.0
2014-Dec-24 18:09N 30°02' E 121°59'0 0.0
2014-Dec-24 17:21N 30°02' E 121°59'0 0.0
2014-Dec-24 16:27N 30°02' E 121°59'0 0.0
2014-Dec-24 15:27N 30°02' E 121°59'0 0.0
2014-Dec-24 14:27N 30°02' E 121°59'0 0.0
2014-Dec-24 13:21N 30°02' E 121°59'0 0.0
2014-Dec-24 12:21N 30°02' E 121°59'0 0.0
2014-Dec-24 11:15N 30°02' E 121°59'0 0.0
2014-Dec-24 10:33N 30°02' E 121°59'0 0.0
2014-Dec-24 09:21N 30°02' E 121°59'0 0.0
2014-Dec-24 06:21N 30°02' E 121°59'0 0.0
2014-Dec-24 05:33N 30°02' E 121°59'0 0.0
2014-Dec-24 04:03N 30°02' E 121°59'0 0.0
2014-Dec-24 03:21N 30°02' E 121°59'0 0.0
2014-Dec-24 01:21N 30°02' E 121°59'0 0.0
2014-Dec-24 00:27N 30°02' E 121°59'0 0.0
2014-Dec-23 23:03N 30°02' E 121°59'0 0.0
2014-Dec-23 22:27N 30°02' E 121°59'0 0.0
2014-Dec-23 21:21N 30°02' E 121°59'0 0.0
2014-Dec-23 20:21N 30°02' E 121°59'  
Track history (hours):
 
Tides and Currents Weather Stations Pressure Air Temp Water Temp Dewpoint Dewpoint Depression Visibility Wind Speed Wind Dir Waves Ship Positions

Ocean Celebrity

Last reported at 2015-Jan-02 19:31 UTC. Time now 2015-Jan-25 18:24 UTC.
Position N 31°03' E 122°46'.
Warning: this ship's position is 22 days out of date.

Length 289 m; draft 7.3 m.

Type: Cargo ship. MMSI: 356712000.

Date/timePositionNaut miles runAvg speedWind from/ knotsBaromVisibWave heightAir tempDewpointWater temp
2015-Jan-02 19:31N 31°03' E 122°46'1010.4
2015-Jan-02 18:32N 31°03' E 122°34'1010.2
2015-Jan-02 17:33N 31°06' E 122°23'1414.2
2015-Jan-02 16:33N 31°12' E 122°08'1212.1
2015-Jan-02 15:33N 31°16' E 121°54'1110.8
2015-Jan-02 14:33N 31°19' E 121°43'9 9.3
2015-Jan-02 13:33N 31°24' E 121°33'8 8.0
2015-Jan-02 12:33N 31°29' E 121°26'1111.2
2015-Jan-02 11:33N 31°37' E 121°16'1212.0
2015-Jan-02 10:33N 31°44' E 121°06'1212.0
2015-Jan-02 09:33N 31°51' E 120°54'8 8.3
2015-Jan-02 08:33N 31°59' E 120°51'0 0.0
2015-Jan-02 07:14N 31°59' E 120°51'0 0.0
2015-Jan-02 06:29N 31°59' E 120°51'0 0.0
2015-Jan-02 05:29N 31°59' E 120°51'0 0.0
2015-Jan-02 04:29N 31°59' E 120°51'0 0.0
2015-Jan-02 03:17N 31°59' E 120°51'0 0.0
2015-Jan-02 02:32N 31°59' E 120°51'0 0.0
2015-Jan-02 01:32N 31°59' E 120°51'0 0.0
2015-Jan-02 00:29N 31°59' E 120°51'0 0.0
2015-Jan-01 23:29N 31°59' E 120°51'0 0.0
2015-Jan-01 22:32N 31°59' E 120°51'0 0.0
2015-Jan-01 21:29N 31°59' E 120°51'0 0.0
2015-Jan-01 20:29N 31°59' E 120°51'0 0.0
2015-Jan-01 19:29N 31°59' E 120°51'0 0.0
2015-Jan-01 18:32N 31°59' E 120°51'0 0.0
2015-Jan-01 17:32N 31°59' E 120°51'0 0.0
2015-Jan-01 16:32N 31°59' E 120°51'0 0.0
2015-Jan-01 15:29N 31°59' E 120°51'0 0.0
2015-Jan-01 14:29N 31°59' E 120°51'0 0.0
2015-Jan-01 13:32N 31°59' E 120°51'0 0.0
2015-Jan-01 12:26N 31°59' E 120°51'0 0.0
2015-Jan-01 11:32N 31°59' E 120°51'0 0.0
2015-Jan-01 10:11N 31°59' E 120°51'0 0.0
2015-Jan-01 09:32N 31°59' E 120°51'0 0.0
2015-Jan-01 08:17N 31°59' E 120°51'0 0.0
2015-Jan-01 07:32N 31°59' E 120°51'0 0.0
2015-Jan-01 06:28N 31°59' E 120°51'0 0.0
2015-Jan-01 05:33N 31°59' E 120°51'0 0.0
2015-Jan-01 04:33N 31°59' E 120°51'0 0.0
2015-Jan-01 03:33N 31°59' E 120°51'0 0.0
2015-Jan-01 02:33N 31°59' E 120°51'0 0.0
2015-Jan-01 01:33N 31°59' E 120°51'0 0.0
2015-Jan-01 00:30N 31°59' E 120°51'0 0.0
2014-Dec-31 23:33N 31°59' E 120°51'0 0.0
2014-Dec-31 22:33N 31°59' E 120°51'0 0.0
2014-Dec-31 21:33N 31°59' E 120°51'0 0.0
2014-Dec-31 20:27N 31°59' E 120°51'0 0.0
2014-Dec-31 19:30N 31°59' E 120°51'0 0.0
2014-Dec-31 18:33N 31°59' E 120°51'0 0.0
2014-Dec-31 17:33N 31°59' E 120°51'0 0.0
2014-Dec-31 16:33N 31°59' E 120°51'0 0.0
2014-Dec-31 15:33N 31°59' E 120°51'0 0.0
2014-Dec-31 14:33N 31°59' E 120°51'0 0.0
2014-Dec-31 13:33N 31°59' E 120°51'0 0.0
2014-Dec-31 12:33N 31°59' E 120°51'0 0.0
2014-Dec-31 11:30N 31°59' E 120°51'0 0.0
2014-Dec-31 10:33N 31°59' E 120°51'0 0.0
2014-Dec-31 09:33N 31°59' E 120°51'0 0.0
2014-Dec-31 08:30N 31°59' E 120°51'0 0.0
2014-Dec-31 07:33N 31°59' E 120°51'0 0.0
2014-Dec-31 06:24N 31°59' E 120°51'0 0.0
2014-Dec-31 05:21N 31°59' E 120°51'0 0.0
2014-Dec-31 04:30N 31°59' E 120°51'0 0.0
2014-Dec-31 03:28N 31°59' E 120°51'4 4.9
2014-Dec-31 02:33N 31°55' E 120°53'1010.1
2014-Dec-31 01:33N 31°47' E 120°60'1111.0
2014-Dec-31 00:34N 31°41' E 121°11'9 4.5
2014-Dec-30 22:31N 31°35' E 121°19'0 0.2
2014-Dec-30 21:31N 31°35' E 121°19'0 0.0
2014-Dec-30 20:31N 31°35' E 121°19'0 0.1
2014-Dec-30 19:31N 31°35' E 121°19'0 0.0
2014-Dec-30 18:31N 31°35' E 121°19'0 0.0
2014-Dec-30 17:31N 31°35' E 121°19'0 0.0
2014-Dec-30 16:31N 31°35' E 121°19'0 0.1
2014-Dec-30 15:31N 31°35' E 121°19'0 0.2
2014-Dec-30 14:28N 31°35' E 121°19'0 0.2
2014-Dec-30 13:31N 31°35' E 121°19'0 0.2
2014-Dec-30 12:33N 31°35' E 121°19'3 3.4
2014-Dec-30 11:33N 31°32' E 121°21'10 9.9
2014-Dec-30 10:33N 31°26' E 121°30'9 9.3
2014-Dec-30 09:33N 31°21' E 121°39'1110.8
2014-Dec-30 08:33N 31°16' E 121°51'10 9.8
2014-Dec-30 07:33N 31°14' E 122°02'9 9.3
2014-Dec-30 06:33N 31°10' E 122°12'10 9.7
2014-Dec-30 05:33N 31°06' E 122°22'8 8.4
2014-Dec-30 04:33N 31°07' E 122°32'5 5.2
2014-Dec-30 03:33N 31°07' E 122°38'5 5.3
2014-Dec-30 02:33N 31°07' E 122°44'5 4.9
2014-Dec-30 01:29N 31°08' E 122°50'0 0.1
2014-Dec-29 22:23N 31°08' E 122°50'0 0.1
2014-Dec-29 21:08N 31°08' E 122°50'0 0.1
2014-Dec-29 20:20N 31°08' E 122°50'0 0.0
2014-Dec-29 19:14N 31°08' E 122°50'0 0.0
2014-Dec-29 03:11N 31°08' E 122°50'0 0.0
2014-Dec-29 02:32N 31°08' E 122°50'  
2014-Dec-25 08:31N 29°47' E 122°38'9 9.4
2014-Dec-25 07:33N 29°42' E 122°29'1211.7
2014-Dec-25 06:33N 29°47' E 122°16'1111.1
2014-Dec-25 05:33N 29°55' E 122°08'9 8.6
2014-Dec-25 04:33N 29°58' E 121°58'4 3.2
2014-Dec-25 03:21N 30°02' E 121°59'0 0.0
2014-Dec-25 02:21N 30°02' E 121°59'0 0.0
2014-Dec-25 01:33N 30°02' E 121°59'0 0.0
2014-Dec-25 00:21N 30°02' E 121°59'0 0.0
2014-Dec-24 23:09N 30°02' E 121°59'0 0.0
2014-Dec-24 22:21N 30°02' E 121°59'0 0.0
2014-Dec-24 21:21N 30°02' E 121°59'0 0.0
2014-Dec-24 20:03N 30°02' E 121°59'0 0.0
2014-Dec-24 19:09N 30°02' E 121°59'0 0.0
2014-Dec-24 18:09N 30°02' E 121°59'0 0.0
2014-Dec-24 17:21N 30°02' E 121°59'0 0.0
2014-Dec-24 16:27N 30°02' E 121°59'0 0.0
2014-Dec-24 15:27N 30°02' E 121°59'0 0.0
2014-Dec-24 14:27N 30°02' E 121°59'0 0.0
2014-Dec-24 13:21N 30°02' E 121°59'0 0.0
2014-Dec-24 12:21N 30°02' E 121°59'0 0.0
2014-Dec-24 11:15N 30°02' E 121°59'0 0.0
2014-Dec-24 10:33N 30°02' E 121°59'0 0.0
2014-Dec-24 09:21N 30°02' E 121°59'0 0.0
2014-Dec-24 06:21N 30°02' E 121°59'0 0.0
2014-Dec-24 05:33N 30°02' E 121°59'0 0.0
2014-Dec-24 04:03N 30°02' E 121°59'0 0.0
2014-Dec-24 03:21N 30°02' E 121°59'0 0.0
2014-Dec-24 01:21N 30°02' E 121°59'0 0.0
2014-Dec-24 00:27N 30°02' E 121°59'0 0.0
2014-Dec-23 23:03N 30°02' E 121°59'0 0.0
2014-Dec-23 22:27N 30°02' E 121°59'0 0.0
2014-Dec-23 21:21N 30°02' E 121°59'0 0.0
2014-Dec-23 20:21N 30°02' E 121°59'  

Dump ship's entire track history